Decoded Metar for KLQK ( in ) (IATA:) | Meteo·Mobile Aviation Weather
aviador You're here:

KLQK Decoded Metar

in
Report Time2018-08-19 05:15:00
UTC Time2018-08-19 05:28:22
Flight Rules ifr IFR
Wind220° at 08 kt
W.Decomp.*RWY 23: 7.9 kt HW 1.4 kt LCW
W.Rank220° ranks 2
Current wind is above 220° avg. (5.9)
Visibility9999 m
Phenomena:N/A
Clouds:Overcast 005 Hf
Ceiling500 ft
Temp23°C
Dew Point23°C (100% RH)
QNH1015 hPa
Raw Report
METAR KLQK 190515Z AUTO 22008KT 10SM OVC005 23/23 A2996 RMK AO2 T02250225=

Extra information for KLQK:More info

Social comments